Time;durP1;ratioP1;P1;durP2;ratioP2;P2;SDS_P1;SDS_P2;PMS_P1;PMS_P2;Temp;Humidity;BMP_temperature;BMP_pressure;BME280_temperature;BME280_humidity;BME280_pressure;Samples;Min_cycle;Max_cycle;Signal;HPM_P1;HPM_P2
2022/04/03 00:00:33;;;;;;;9.60;6.63;;;-3.10;79.70;;;;;;5088818;28;20228;-82
2022/04/03 00:03:00;;;;;;;9.13;5.50;;;-3.20;79.70;;;;;;5073142;28;20927;-82
2022/04/03 00:05:27;;;;;;;7.70;6.07;;;-3.10;79.70;;;;;;5090601;28;20314;-82
2022/04/03 00:07:54;;;;;;;7.50;5.30;;;-3.10;80.00;;;;;;5077138;28;20257;-82
2022/04/03 00:10:21;;;;;;;7.83;5.73;;;-3.10;80.50;;;;;;5079281;28;20233;-82
2022/04/03 00:12:50;;;;;;;8.47;5.80;;;-3.10;80.70;;;;;;5090349;28;20232;-85
2022/04/03 00:15:18;;;;;;;8.03;5.77;;;-3.10;81.00;;;;;;5079829;28;20252;-83
2022/04/03 00:17:45;;;;;;;8.00;5.60;;;-3.00;81.00;;;;;;5093179;28;20226;-84
2022/04/03 00:20:14;;;;;;;10.47;6.07;;;-3.00;81.20;;;;;;5093452;28;20223;-84
2022/04/03 00:22:42;;;;;;;7.97;5.87;;;-2.90;81.50;;;;;;5077327;28;20236;-84
2022/04/03 00:25:11;;;;;;;9.13;5.83;;;-2.80;81.30;;;;;;5092868;28;20328;-84
2022/04/03 00:27:38;;;;;;;9.47;6.07;;;-2.80;81.30;;;;;;5077350;28;20860;-83
2022/04/03 00:30:07;;;;;;;8.37;5.60;;;-2.70;81.30;;;;;;5073106;28;20252;-84
2022/04/03 00:32:34;;;;;;;8.17;5.70;;;-2.60;81.70;;;;;;5085747;28;20221;-84
2022/04/03 00:35:01;;;;;;;10.03;6.77;;;-2.60;82.30;;;;;;5074899;28;20245;-84
2022/04/03 00:37:28;;;;;;;11.53;6.47;;;-2.50;83.00;;;;;;5092310;28;20233;-84
2022/04/03 00:39:55;;;;;;;8.93;5.87;;;-2.40;83.50;;;;;;5093161;28;20281;-84
2022/04/03 00:42:22;;;;;;;9.53;6.40;;;-2.40;83.70;;;;;;5075473;28;20650;-84
2022/04/03 00:44:49;;;;;;;10.53;6.80;;;-2.30;84.10;;;;;;5076415;28;20219;-84
2022/04/03 00:47:19;;;;;;;9.90;6.47;;;-2.20;83.70;;;;;;5081263;28;20228;-84
2022/04/03 00:49:47;;;;;;;9.63;6.60;;;-2.20;83.80;;;;;;5078870;28;20335;-84
2022/04/03 00:52:13;;;;;;;10.23;7.03;;;-2.20;83.40;;;;;;5075421;28;20245;-84
2022/04/03 00:54:40;;;;;;;9.50;6.63;;;-2.10;83.30;;;;;;5087620;28;20335;-83
2022/04/03 00:57:08;;;;;;;12.03;7.27;;;-2.10;83.30;;;;;;5089239;28;20246;-84
2022/04/03 00:59:35;;;;;;;9.80;6.60;;;-2.10;83.40;;;;;;5089504;28;20225;-85
2022/04/03 01:02:02;;;;;;;9.87;6.70;;;-2.10;83.40;;;;;;5080473;28;20600;-84
2022/04/03 01:04:31;;;;;;;9.57;6.73;;;-2.00;83.50;;;;;;5070122;28;20226;-84
2022/04/03 01:06:59;;;;;;;10.10;6.43;;;-2.00;83.40;;;;;;5075783;28;20662;-85
2022/04/03 01:09:27;;;;;;;8.13;5.73;;;-2.00;83.50;;;;;;5090000;28;20233;-84
2022/04/03 01:11:53;;;;;;;11.37;6.83;;;-1.90;83.70;;;;;;5069239;28;20233;-84
2022/04/03 01:14:31;;;;;;;9.33;6.57;;;-1.90;83.60;;;;;;5084255;28;20220;-84
2022/04/03 01:16:58;;;;;;;8.87;6.60;;;-1.80;84.30;;;;;;5089954;28;20234;-84
2022/04/03 01:19:25;;;;;;;9.87;6.57;;;-1.80;83.70;;;;;;5072105;28;20218;-85
2022/04/03 01:21:53;;;;;;;9.63;6.57;;;-1.70;84.00;;;;;;5071933;28;20233;-85
2022/04/03 01:24:21;;;;;;;10.93;6.77;;;-1.70;84.60;;;;;;5074636;28;20227;-82
2022/04/03 01:26:50;;;;;;;10.77;6.70;;;-1.70;84.40;;;;;;5083088;28;20308;-83
2022/04/03 01:29:17;;;;;;;10.67;7.07;;;-1.60;84.40;;;;;;5072924;28;20214;-82
2022/04/03 01:31:44;;;;;;;8.80;6.40;;;-1.60;84.20;;;;;;5077699;28;20240;-83
2022/04/03 01:34:11;;;;;;;11.07;7.20;;;-1.60;84.20;;;;;;5075640;28;20243;-83
2022/04/03 01:36:37;;;;;;;9.83;6.87;;;-1.60;84.10;;;;;;5091007;28;20547;-83
2022/04/03 01:39:04;;;;;;;9.43;6.70;;;-1.50;84.10;;;;;;5079154;28;20238;-83
2022/04/03 01:41:31;;;;;;;9.83;6.43;;;-1.50;83.90;;;;;;5073801;28;20225;-83
2022/04/03 01:43:59;;;;;;;10.67;6.67;;;-1.60;83.40;;;;;;5078863;28;20226;-83
2022/04/03 01:46:26;;;;;;;10.50;6.73;;;-1.60;83.30;;;;;;5071672;28;20230;-83
2022/04/03 01:48:53;;;;;;;8.27;6.07;;;-1.60;83.00;;;;;;5091079;28;20247;-83
2022/04/03 01:51:20;;;;;;;10.37;6.27;;;-1.60;83.20;;;;;;5089087;28;20221;-82
2022/04/03 01:53:46;;;;;;;10.17;6.70;;;-1.60;83.40;;;;;;5089576;28;20593;-83
2022/04/03 01:56:13;;;;;;;10.57;6.80;;;-1.60;83.40;;;;;;5090153;28;20228;-84
2022/04/03 01:58:40;;;;;;;9.47;6.23;;;-1.60;84.00;;;;;;5072808;28;20326;-84
2022/04/03 02:01:08;;;;;;;10.10;6.27;;;-1.60;84.10;;;;;;5088822;28;20230;-84
2022/04/03 02:03:35;;;;;;;10.90;6.50;;;-1.60;83.70;;;;;;5070778;28;20229;-83
2022/04/03 02:06:02;;;;;;;7.60;5.90;;;-1.60;83.40;;;;;;5072188;28;20223;-84
2022/04/03 02:08:29;;;;;;;8.23;6.10;;;-1.60;83.30;;;;;;5076882;28;20256;-84
2022/04/03 02:10:56;;;;;;;9.00;6.07;;;-1.70;83.30;;;;;;5074450;28;20292;-84
2022/04/03 02:13:23;;;;;;;10.83;6.43;;;-1.70;83.00;;;;;;5090988;28;20235;-83
2022/04/03 02:15:50;;;;;;;8.00;6.00;;;-1.70;82.90;;;;;;5081490;28;20232;-84
2022/04/03 02:18:18;;;;;;;9.07;6.40;;;-1.80;82.90;;;;;;5081507;28;20735;-84
2022/04/03 02:20:45;;;;;;;11.50;6.67;;;-1.90;83.00;;;;;;5100301;28;20231;-85
2022/04/03 02:23:13;;;;;;;9.50;6.23;;;-1.90;82.80;;;;;;5089268;28;20233;-84
2022/04/03 02:25:40;;;;;;;7.40;6.20;;;-2.00;82.80;;;;;;5091039;28;20219;-84
2022/04/03 02:28:09;;;;;;;10.03;6.50;;;-2.00;83.20;;;;;;5090503;28;20230;-84
2022/04/03 02:30:36;;;;;;;10.87;7.27;;;-2.10;83.30;;;;;;5089634;28;20236;-85
2022/04/03 02:33:03;;;;;;;10.60;6.67;;;-2.10;83.50;;;;;;5070404;28;20275;-85
2022/04/03 02:35:31;;;;;;;8.40;6.50;;;-2.20;83.70;;;;;;5091830;28;20229;-84
2022/04/03 02:37:57;;;;;;;9.43;6.43;;;-2.30;84.30;;;;;;5076573;28;20636;-84
2022/04/03 02:40:24;;;;;;;8.87;6.33;;;-2.30;84.50;;;;;;5070792;28;20228;-85
2022/04/03 02:42:52;;;;;;;12.37;7.33;;;-2.40;84.70;;;;;;5072294;28;20226;-85
2022/04/03 02:45:19;;;;;;;10.47;6.93;;;-2.40;84.60;;;;;;5083061;28;20272;-87
2022/04/03 02:47:50;;;;;;;9.17;6.97;;;-2.50;85.00;;;;;;5072629;28;20248;-87
2022/04/03 02:50:19;;;;;;;11.40;6.83;;;-2.50;85.60;;;;;;5070273;28;20682;-86
2022/04/03 02:52:48;;;;;;;10.87;6.47;;;-2.60;85.40;;;;;;5070271;28;20229;-85
2022/04/03 02:55:15;;;;;;;11.53;7.10;;;-2.60;85.60;;;;;;5074550;28;20734;-84
2022/04/03 02:57:42;;;;;;;9.97;6.10;;;-2.70;85.80;;;;;;5069196;28;20785;-84
2022/04/03 03:00:14;;;;;;;11.50;7.87;;;-2.70;86.20;;;;;;5086383;28;20235;-84
2022/04/03 03:02:41;;;;;;;9.60;6.90;;;-2.80;86.40;;;;;;5073004;28;21087;-85
2022/04/03 03:05:08;;;;;;;10.93;7.60;;;-2.80;86.40;;;;;;5074877;28;20226;-85
2022/04/03 03:07:38;;;;;;;9.70;6.80;;;-2.80;86.70;;;;;;5089676;28;20226;-85
2022/04/03 03:10:09;;;;;;;8.97;6.57;;;-2.90;87.40;;;;;;5089467;28;20259;-84
2022/04/03 03:12:36;;;;;;;13.17;7.00;;;-2.90;87.50;;;;;;5089888;28;20731;-84
2022/04/03 03:15:04;;;;;;;11.40;7.03;;;-2.90;87.20;;;;;;5087737;28;20233;-86
2022/04/03 03:17:31;;;;;;;10.50;6.60;;;-3.00;87.20;;;;;;5073932;28;20245;-86
2022/04/03 03:19:59;;;;;;;9.27;6.30;;;-3.00;87.30;;;;;;5083826;28;20307;-84
2022/04/03 03:22:26;;;;;;;8.43;6.30;;;-3.10;87.60;;;;;;5088766;28;20229;-82
2022/04/03 03:24:53;;;;;;;8.97;6.13;;;-3.10;87.80;;;;;;5074187;28;20234;-82
2022/04/03 03:27:21;;;;;;;11.30;6.53;;;-3.10;88.00;;;;;;5086064;28;20228;-83
2022/04/03 03:29:48;;;;;;;11.80;6.80;;;-3.20;88.40;;;;;;5071379;28;20333;-83
2022/04/03 03:32:14;;;;;;;10.23;6.87;;;-3.20;88.60;;;;;;5083826;28;20226;-82
2022/04/03 03:34:41;;;;;;;11.57;6.90;;;-3.20;88.90;;;;;;5080525;28;20233;-83
2022/04/03 03:37:08;;;;;;;11.23;6.57;;;-3.20;89.20;;;;;;5088080;28;20240;-82
2022/04/03 03:39:35;;;;;;;8.40;6.40;;;-3.20;89.30;;;;;;5088187;28;20925;-83
2022/04/03 03:42:02;;;;;;;11.53;6.30;;;-3.20;89.50;;;;;;5073296;28;20791;-82
2022/04/03 03:44:30;;;;;;;9.90;6.40;;;-3.30;88.90;;;;;;5078554;28;20281;-82
2022/04/03 03:46:57;;;;;;;11.87;6.30;;;-3.30;88.50;;;;;;5074042;28;20226;-82
2022/04/03 03:49:24;;;;;;;8.83;6.43;;;-3.30;88.20;;;;;;5085124;28;20232;-81
2022/04/03 03:51:52;;;;;;;9.57;5.83;;;-3.40;88.10;;;;;;5077377;28;20636;-82
2022/04/03 03:54:19;;;;;;;11.63;6.23;;;-3.40;88.30;;;;;;5091351;28;20221;-82
2022/04/03 03:56:45;;;;;;;11.77;7.33;;;-3.40;89.10;;;;;;5084657;28;20238;-82
2022/04/03 03:59:14;;;;;;;10.00;6.53;;;-3.40;90.00;;;;;;5076433;28;20223;-83
2022/04/03 04:01:43;;;;;;;10.37;6.97;;;-3.40;90.30;;;;;;5092947;28;20225;-83
2022/04/03 04:04:09;;;;;;;11.67;6.73;;;-3.40;90.40;;;;;;5073537;28;20231;-84
2022/04/03 04:06:36;;;;;;;9.00;6.23;;;-3.40;90.40;;;;;;5070409;28;20761;-83
2022/04/03 04:09:04;;;;;;;9.53;6.37;;;-3.40;90.50;;;;;;5079331;28;20282;-81
2022/04/03 04:11:31;;;;;;;10.53;6.60;;;-3.40;90.60;;;;;;5081699;28;20233;-82
2022/04/03 04:13:57;;;;;;;8.90;6.20;;;-3.40;90.60;;;;;;5086108;28;20229;-82
2022/04/03 04:16:24;;;;;;;12.83;6.70;;;-3.40;90.60;;;;;;5095155;28;20322;-82
2022/04/03 04:18:52;;;;;;;9.83;5.90;;;-3.40;90.70;;;;;;5096701;28;20230;-83
2022/04/03 04:21:19;;;;;;;10.90;6.90;;;-3.50;90.90;;;;;;5087472;28;20241;-83
2022/04/03 04:23:46;;;;;;;7.20;5.70;;;-3.50;90.90;;;;;;5087600;28;20238;-83
2022/04/03 04:26:13;;;;;;;10.60;6.07;;;-3.50;91.40;;;;;;5071851;28;20275;-83
2022/04/03 04:28:40;;;;;;;10.00;7.03;;;-3.50;91.30;;;;;;5075383;28;20970;-83
2022/04/03 04:31:07;;;;;;;14.23;7.20;;;-3.50;91.40;;;;;;5085582;28;20776;-83
2022/04/03 04:33:34;;;;;;;7.77;5.87;;;-3.50;91.60;;;;;;5082973;28;20321;-83
2022/04/03 04:36:02;;;;;;;9.87;6.77;;;-3.60;91.60;;;;;;5087218;28;20223;-84
2022/04/03 04:38:29;;;;;;;10.97;6.33;;;-3.50;91.70;;;;;;5070600;28;20965;-83
2022/04/03 04:40:55;;;;;;;9.67;5.97;;;-3.60;91.70;;;;;;5086610;28;20236;-84
2022/04/03 04:43:22;;;;;;;10.50;6.93;;;-3.60;91.80;;;;;;5078583;28;20301;-83
2022/04/03 04:45:49;;;;;;;8.13;6.10;;;-3.60;91.90;;;;;;5074392;28;20238;-83
2022/04/03 04:48:16;;;;;;;11.80;6.27;;;-3.60;92.00;;;;;;5090473;28;21468;-83
2022/04/03 04:50:43;;;;;;;9.87;6.07;;;-3.60;91.90;;;;;;5076850;28;20722;-77
2022/04/03 04:53:11;;;;;;;11.13;6.67;;;-3.60;92.00;;;;;;5068689;28;20618;-77
2022/04/03 04:55:38;;;;;;;9.20;6.27;;;-3.60;92.10;;;;;;5073227;28;20226;-79
2022/04/03 04:58:05;;;;;;;11.50;6.57;;;-3.70;92.10;;;;;;5089095;28;20231;-79
2022/04/03 05:00:32;;;;;;;10.53;6.40;;;-3.60;92.20;;;;;;5077051;28;20234;-78
2022/04/03 05:03:00;;;;;;;7.53;5.73;;;-3.70;92.40;;;;;;5069855;28;20281;-79
2022/04/03 05:05:28;;;;;;;11.33;6.40;;;-3.70;92.60;;;;;;5088088;28;20226;-79
2022/04/03 05:07:57;;;;;;;12.57;6.23;;;-3.70;92.80;;;;;;5090255;28;20310;-79
2022/04/03 05:10:27;;;;;;;9.90;7.30;;;-3.70;93.00;;;;;;5074629;28;20222;-78
2022/04/03 05:12:54;;;;;;;15.03;6.67;;;-3.70;93.10;;;;;;5088202;28;20678;-78
2022/04/03 05:15:21;;;;;;;8.53;5.97;;;-3.60;93.20;;;;;;5074721;28;20639;-78
2022/04/03 05:17:48;;;;;;;8.90;6.60;;;-3.60;93.20;;;;;;5069276;28;20223;-78
2022/04/03 05:20:16;;;;;;;8.63;6.27;;;-3.60;93.30;;;;;;5069267;28;20236;-79
2022/04/03 05:22:44;;;;;;;11.73;6.40;;;-3.60;93.40;;;;;;5086289;28;20261;-80
2022/04/03 05:25:11;;;;;;;11.67;6.37;;;-3.60;93.60;;;;;;5068439;28;20229;-81
2022/04/03 05:27:40;;;;;;;10.90;6.67;;;-3.50;93.70;;;;;;5088825;28;20233;-79
2022/04/03 05:30:08;;;;;;;10.27;6.50;;;-3.50;94.00;;;;;;5070728;28;20251;-79
2022/04/03 05:32:36;;;;;;;13.13;6.27;;;-3.40;94.20;;;;;;5069855;28;20229;-79
2022/04/03 05:35:04;;;;;;;9.57;6.30;;;-3.30;94.30;;;;;;5085414;28;20223;-78
2022/04/03 05:37:31;;;;;;;11.03;6.63;;;-3.20;94.50;;;;;;5067508;28;20237;-79
2022/04/03 05:39:58;;;;;;;8.47;5.63;;;-3.10;94.60;;;;;;5085982;28;20229;-79
2022/04/03 05:42:25;;;;;;;7.90;5.63;;;-3.00;94.70;;;;;;5086935;28;20718;-79
2022/04/03 05:44:53;;;;;;;9.90;5.30;;;-2.80;94.50;;;;;;5067987;28;21112;-78
2022/04/03 05:47:20;;;;;;;7.00;5.20;;;-2.70;94.60;;;;;;5065426;28;20720;-78
2022/04/03 05:49:47;;;;;;;8.67;4.97;;;-2.50;94.50;;;;;;5067248;28;20290;-78
2022/04/03 05:52:14;;;;;;;9.07;5.43;;;-2.30;94.60;;;;;;5083889;28;20294;-79
2022/04/03 05:54:41;;;;;;;12.50;5.43;;;-2.10;94.70;;;;;;5068958;28;20218;-79
2022/04/03 05:57:10;;;;;;;7.73;4.93;;;-1.80;94.70;;;;;;5085995;28;20231;-79
2022/04/03 05:59:37;;;;;;;8.93;5.03;;;-1.60;94.70;;;;;;5083828;28;20302;-79
2022/04/03 06:02:06;;;;;;;6.63;4.90;;;-1.30;94.80;;;;;;5087702;28;20306;-79
2022/04/03 06:04:33;;;;;;;6.83;4.83;;;-0.90;95.00;;;;;;5068133;28;20259;-79
2022/04/03 06:07:00;;;;;;;6.70;5.23;;;-0.60;94.70;;;;;;5071481;28;20227;-79
2022/04/03 06:09:27;;;;;;;8.17;4.83;;;-0.30;94.00;;;;;;5074573;28;20237;-79
2022/04/03 06:11:53;;;;;;;9.87;4.93;;;0.00;93.60;;;;;;5086768;28;20242;-79
2022/04/03 06:14:20;;;;;;;8.70;5.40;;;0.10;93.10;;;;;;5086506;28;20572;-79
2022/04/03 06:16:47;;;;;;;8.50;5.07;;;0.20;92.90;;;;;;5070288;28;20594;-79
2022/04/03 06:19:15;;;;;;;10.00;4.77;;;0.30;92.90;;;;;;5067886;28;20213;-79
2022/04/03 06:21:42;;;;;;;6.63;4.70;;;0.30;93.00;;;;;;5086058;28;20240;-79
2022/04/03 06:24:09;;;;;;;7.40;5.30;;;0.40;92.80;;;;;;5087228;28;20229;-79
2022/04/03 06:26:35;;;;;;;7.20;4.80;;;0.50;92.80;;;;;;5087805;28;20237;-79
2022/04/03 06:29:02;;;;;;;7.70;5.43;;;0.60;92.90;;;;;;5088675;28;20226;-79
2022/04/03 06:31:30;;;;;;;7.53;4.97;;;0.70;93.00;;;;;;5074375;28;20243;-79
2022/04/03 06:33:57;;;;;;;6.40;4.90;;;0.80;93.50;;;;;;5069242;28;20712;-79
2022/04/03 06:36:25;;;;;;;6.87;4.80;;;0.90;93.20;;;;;;5070250;28;20229;-80
2022/04/03 06:38:52;;;;;;;8.20;5.13;;;1.00;93.30;;;;;;5087861;28;20240;-78
2022/04/03 06:41:18;;;;;;;6.30;4.40;;;1.10;93.40;;;;;;5086315;28;20215;-78
2022/04/03 06:43:46;;;;;;;9.70;4.93;;;1.30;93.60;;;;;;5080969;28;20232;-78
2022/04/03 06:46:13;;;;;;;8.33;4.70;;;1.40;93.60;;;;;;5086626;28;20250;-78
2022/04/03 06:48:39;;;;;;;7.07;4.40;;;1.70;93.80;;;;;;5088201;28;20698;-79
2022/04/03 06:51:06;;;;;;;7.70;4.70;;;1.90;93.80;;;;;;5088383;28;20230;-79
2022/04/03 06:53:34;;;;;;;5.77;3.90;;;2.20;93.70;;;;;;5085792;28;20239;-79
2022/04/03 06:56:01;;;;;;;5.00;3.50;;;2.40;93.60;;;;;;5087590;28;20223;-78
2022/04/03 06:58:27;;;;;;;6.50;3.70;;;2.60;93.20;;;;;;5072247;28;20237;-79
2022/04/03 07:00:54;;;;;;;5.70;3.43;;;2.80;92.80;;;;;;5088224;28;20901;-79
2022/04/03 07:03:21;;;;;;;6.53;3.60;;;3.00;92.80;;;;;;5087275;28;20637;-78
2022/04/03 07:05:48;;;;;;;7.40;3.60;;;3.10;92.50;;;;;;5088662;28;20219;-79
2022/04/03 07:08:15;;;;;;;4.60;3.17;;;3.20;92.20;;;;;;5069131;28;20686;-77
2022/04/03 07:10:44;;;;;;;4.20;3.20;;;3.30;92.10;;;;;;5090364;28;20301;-76
2022/04/03 07:13:12;;;;;;;3.97;3.17;;;3.30;92.00;;;;;;5088559;28;20227;-77
2022/04/03 07:15:39;;;;;;;4.63;2.93;;;3.40;91.80;;;;;;5089274;28;20931;-77
2022/04/03 07:18:07;;;;;;;4.17;2.47;;;3.40;91.60;;;;;;5088689;28;20234;-77
2022/04/03 07:20:34;;;;;;;4.77;2.97;;;3.40;91.60;;;;;;5086983;28;20326;-78
2022/04/03 07:23:01;;;;;;;5.27;2.97;;;3.40;91.50;;;;;;5068912;28;20243;-78
2022/04/03 07:25:28;;;;;;;5.30;3.27;;;3.40;91.40;;;;;;5096458;28;20268;-79
2022/04/03 07:27:56;;;;;;;6.83;3.43;;;3.50;91.30;;;;;;5079699;28;20227;-79
2022/04/03 07:30:23;;;;;;;6.33;2.90;;;3.50;91.10;;;;;;5096529;28;20339;-78
2022/04/03 07:32:49;;;;;;;4.20;2.87;;;3.50;90.90;;;;;;5076984;28;20702;-80
2022/04/03 07:35:16;;;;;;;11.13;2.70;;;3.50;90.90;;;;;;5076409;28;20618;-79
2022/04/03 07:37:43;;;;;;;4.67;2.83;;;3.40;90.80;;;;;;5078670;28;20227;-80
2022/04/03 07:40:11;;;;;;;4.83;2.50;;;3.40;91.00;;;;;;5078703;28;20237;-80
2022/04/03 07:42:39;;;;;;;7.57;2.60;;;3.40;91.10;;;;;;5096292;28;20296;-79
2022/04/03 07:45:08;;;;;;;3.67;2.63;;;3.40;91.20;;;;;;5088311;28;20248;-78
2022/04/03 07:47:35;;;;;;;7.50;2.80;;;3.30;91.60;;;;;;5092616;28;20255;-78
2022/04/03 07:50:04;;;;;;;3.37;2.47;;;3.20;91.70;;;;;;5073125;28;20957;-80
2022/04/03 07:52:32;;;;;;;5.53;3.07;;;3.10;92.00;;;;;;5090358;28;20597;-79
2022/04/03 07:54:59;;;;;;;7.53;3.57;;;3.00;92.40;;;;;;5092523;28;20234;-79
2022/04/03 07:57:26;;;;;;;3.60;2.73;;;3.00;92.80;;;;;;5080193;28;20224;-82
2022/04/03 07:59:53;;;;;;;9.03;3.17;;;2.90;93.00;;;;;;5074544;28;20234;-79
2022/04/03 08:02:21;;;;;;;6.50;3.03;;;2.90;93.30;;;;;;5093509;28;20249;-82
2022/04/03 08:04:48;;;;;;;5.53;2.60;;;2.80;93.70;;;;;;5076322;28;20227;-81
2022/04/03 08:07:14;;;;;;;5.13;3.30;;;2.80;93.70;;;;;;5092950;28;20224;-82
2022/04/03 08:09:41;;;;;;;14.47;3.80;;;2.70;93.70;;;;;;5076183;28;20353;-77
2022/04/03 08:12:10;;;;;;;6.83;3.67;;;2.70;94.30;;;;;;5074590;28;20234;-83
2022/04/03 08:14:37;;;;;;;18.77;4.30;;;2.70;95.20;;;;;;5093112;28;20230;-82
2022/04/03 08:17:04;;;;;;;95.77;12.60;;;2.80;95.40;;;;;;5075990;28;20223;-81
2022/04/03 08:19:32;;;;;;;19.20;4.20;;;2.90;95.70;;;;;;5074048;28;20235;-83
2022/04/03 08:22:00;;;;;;;6.70;4.00;;;3.00;96.20;;;;;;5089397;28;20234;-84
2022/04/03 08:24:27;;;;;;;7.47;3.93;;;3.20;96.80;;;;;;5087575;28;20255;-84
2022/04/03 08:26:54;;;;;;;5.40;3.83;;;3.50;98.20;;;;;;5090001;28;20228;-84
2022/04/03 08:29:21;;;;;;;8.90;3.70;;;4.10;99.50;;;;;;5085420;28;20226;-83
2022/04/03 08:31:48;;;;;;;4.03;3.00;;;4.70;99.80;;;;;;5093659;28;20220;-82
2022/04/03 08:34:14;;;;;;;5.10;2.97;;;5.50;99.90;;;;;;5094164;28;20281;-83
2022/04/03 08:36:43;;;;;;;3.87;2.07;;;6.30;98.90;;;;;;5092945;28;20235;-83
2022/04/03 08:39:10;;;;;;;2.43;1.83;;;6.90;96.80;;;;;;5092653;28;20310;-83
2022/04/03 08:41:37;;;;;;;4.23;2.30;;;7.30;95.80;;;;;;5093918;28;20256;-83
2022/04/03 08:44:07;;;;;;;2.43;2.10;;;7.60;95.40;;;;;;5094026;28;20399;-83
2022/04/03 08:46:35;;;;;;;3.27;2.13;;;7.90;94.20;;;;;;5075263;28;20701;-83
2022/04/03 08:49:04;;;;;;;3.30;2.07;;;8.00;92.40;;;;;;5076176;28;20379;-82
2022/04/03 08:51:32;;;;;;;3.90;2.60;;;7.80;91.70;;;;;;5074339;28;20236;-82
2022/04/03 08:54:00;;;;;;;6.13;2.50;;;7.60;91.50;;;;;;5073739;28;20593;-82
2022/04/03 08:56:27;;;;;;;4.80;2.40;;;7.20;91.90;;;;;;5072530;28;20252;-81
2022/04/03 08:58:54;;;;;;;4.90;2.40;;;6.90;92.20;;;;;;5072872;28;20231;-81
2022/04/03 09:01:20;;;;;;;4.70;2.30;;;6.60;92.60;;;;;;5091085;28;20533;-82
2022/04/03 09:03:47;;;;;;;4.00;2.27;;;6.30;93.00;;;;;;5073614;28;20235;-80
2022/04/03 09:06:15;;;;;;;3.73;2.17;;;6.10;93.10;;;;;;5090642;28;20243;-80
2022/04/03 09:08:43;;;;;;;3.00;2.00;;;5.90;93.20;;;;;;5072665;28;20307;-80
2022/04/03 09:11:11;;;;;;;4.73;1.83;;;5.80;94.60;;;;;;5072919;28;20233;-80
2022/04/03 09:13:40;;;;;;;3.07;1.90;;;6.00;95.80;;;;;;5074889;28;20858;-82
2022/04/03 09:16:08;;;;;;;2.20;1.73;;;6.30;96.20;;;;;;5075656;28;20220;-82
2022/04/03 09:18:46;;;;;;;2.03;1.60;;;6.60;95.50;;;;;;5074844;28;20226;-83
2022/04/03 09:21:18;;;;;;;2.00;1.63;;;6.80;95.00;;;;;;5092791;28;20232;-82
2022/04/03 09:24:02;;;;;;;3.57;1.80;;;7.00;94.90;;;;;;5093111;28;20225;-82
2022/04/03 09:26:31;;;;;;;3.50;2.00;;;7.30;95.80;;;;;;5091620;28;21096;-82
2022/04/03 09:29:12;;;;;;;5.10;1.60;;;7.60;95.90;;;;;;5090864;28;20303;-82
2022/04/03 09:31:40;;;;;;;3.57;1.50;;;8.10;95.50;;;;;;5089720;28;20297;-84
2022/04/03 09:34:08;;;;;;;4.80;1.83;;;8.50;95.20;;;;;;5071880;28;20234;-82
2022/04/03 09:36:37;;;;;;;3.40;1.50;;;9.00;95.40;;;;;;5091866;28;20246;-83
2022/04/03 09:39:07;;;;;;;3.90;1.43;;;9.50;94.50;;;;;;5092207;28;20448;-83
2022/04/03 09:41:36;;;;;;;3.77;1.70;;;9.80;94.30;;;;;;5072507;28;20230;-82
2022/04/03 09:44:17;;;;;;;1.83;1.60;;;10.20;93.30;;;;;;5090577;28;20618;-82
2022/04/03 09:46:44;;;;;;;3.43;1.73;;;10.40;92.20;;;;;;5072126;28;20703;-83
2022/04/03 09:49:23;;;;;;;2.90;1.63;;;10.50;91.40;;;;;;5070794;28;20321;-82
2022/04/03 09:51:49;;;;;;;4.33;1.90;;;10.50;91.10;;;;;;5071773;28;20740;-82
2022/04/03 09:54:19;;;;;;;4.77;1.70;;;10.50;91.80;;;;;;5069853;28;20219;-82
2022/04/03 09:56:47;;;;;;;7.83;1.67;;;10.50;91.50;;;;;;5067079;28;20216;-83
2022/04/03 09:59:15;;;;;;;3.87;1.93;;;10.70;92.70;;;;;;5068908;28;20228;-85
2022/04/03 10:01:43;;;;;;;4.80;2.00;;;10.90;92.20;;;;;;5089620;28;20233;-81
2022/04/03 10:04:11;;;;;;;5.53;1.80;;;11.20;90.90;;;;;;5087776;28;20306;-81
2022/04/03 10:06:39;;;;;;;3.53;1.77;;;11.30;90.70;;;;;;5086185;28;21153;-81
2022/04/03 10:09:11;;;;;;;3.10;1.60;;;11.40;90.10;;;;;;5090336;28;20246;-82
2022/04/03 10:11:38;;;;;;;2.20;1.17;;;11.40;88.40;;;;;;5075829;28;20761;-81
2022/04/03 10:14:07;;;;;;;3.37;1.57;;;11.20;85.50;;;;;;5076011;28;20238;-82
2022/04/03 10:16:33;;;;;;;7.20;1.83;;;10.90;85.30;;;;;;5074958;28;20290;-81
2022/04/03 10:19:00;;;;;;;5.27;1.70;;;10.70;87.40;;;;;;5072375;28;20226;-81
2022/04/03 10:21:33;;;;;;;5.50;1.93;;;10.50;87.80;;;;;;5090191;28;20306;-80
2022/04/03 10:24:04;;;;;;;5.43;1.80;;;10.50;90.30;;;;;;5069093;28;20234;-82
2022/04/03 10:26:35;;;;;;;4.03;1.47;;;10.70;90.80;;;;;;5075471;28;20294;-82
2022/04/03 10:29:06;;;;;;;2.57;1.40;;;11.00;89.70;;;;;;5090620;28;20318;-82
2022/04/03 10:31:34;;;;;;;2.07;1.30;;;11.30;89.10;;;;;;5076613;28;20728;-81
2022/04/03 10:34:01;;;;;;;5.87;1.70;;;11.50;87.10;;;;;;5079353;28;20230;-82
2022/04/03 10:36:30;;;;;;;1.53;1.27;;;11.70;85.90;;;;;;5072934;28;20711;-81
2022/04/03 10:39:00;;;;;;;4.33;1.40;;;11.70;84.00;;;;;;5090527;28;20232;-81
2022/04/03 10:41:30;;;;;;;2.23;1.20;;;11.70;82.70;;;;;;5088292;28;20227;-80
2022/04/03 10:44:15;;;;;;;4.70;1.50;;;11.70;82.90;;;;;;5072935;28;20226;-81
2022/04/03 10:47:21;;;;;;;2.33;1.03;;;11.60;82.50;;;;;;5094506;28;20754;-81
2022/04/03 10:49:50;;;;;;;5.50;1.40;;;11.50;80.70;;;;;;5077936;28;20231;-81
2022/04/03 10:52:38;;;;;;;4.33;1.70;;;11.30;79.10;;;;;;5093979;28;20735;-81
2022/04/03 10:55:13;;;;;;;5.97;1.47;;;11.00;78.20;;;;;;5078592;28;20288;-81
2022/04/03 10:57:42;;;;;;;2.97;1.30;;;10.60;79.30;;;;;;5096002;28;20705;-81
2022/04/03 11:00:31;;;;;;;2.67;0.90;;;10.10;79.20;;;;;;5077642;28;20702;-82
2022/04/03 11:03:23;;;;;;;3.93;1.10;;;9.50;79.10;;;;;;5076165;28;20247;-80
2022/04/03 11:05:51;;;;;;;2.00;1.03;;;8.80;80.20;;;;;;5077809;28;20226;-81
2022/04/03 11:08:19;;;;;;;2.43;1.10;;;8.00;80.60;;;;;;5076511;28;20224;-80
2022/04/03 11:10:49;;;;;;;3.63;1.00;;;7.40;82.00;;;;;;5095671;28;20229;-80
2022/04/03 11:13:16;;;;;;;4.93;1.53;;;6.80;83.80;;;;;;5077246;28;20258;-80
2022/04/03 11:15:51;;;;;;;3.17;1.30;;;6.30;85.80;;;;;;5095502;28;20267;-80
2022/04/03 11:18:29;;;;;;;3.60;1.60;;;5.90;88.30;;;;;;5095654;28;20318;-80
2022/04/03 11:21:08;;;;;;;3.23;1.10;;;5.60;90.20;;;;;;5095616;28;20227;-80
2022/04/03 11:23:36;;;;;;;3.70;1.43;;;5.30;91.20;;;;;;5095314;28;20231;-80
2022/04/03 11:26:04;;;;;;;2.90;1.30;;;5.20;91.80;;;;;;5096297;28;20224;-81
2022/04/03 11:28:34;;;;;;;3.00;0.97;;;5.10;92.60;;;;;;5095707;28;20233;-81
2022/04/03 11:31:01;;;;;;;2.00;1.13;;;5.10;93.80;;;;;;5062171;28;20228;-81
2022/04/03 11:33:31;;;;;;;2.43;1.50;;;5.20;94.40;;;;;;5078576;28;20234;-82
2022/04/03 11:36:03;;;;;;;1.93;1.00;;;5.40;96.40;;;;;;5093803;28;20228;-81
2022/04/03 11:38:35;;;;;;;1.63;1.20;;;5.70;97.10;;;;;;5096132;28;20228;-82
2022/04/03 11:41:04;;;;;;;4.87;1.23;;;6.00;96.30;;;;;;5077390;28;20319;-82
2022/04/03 11:43:31;;;;;;;7.93;1.20;;;6.40;95.90;;;;;;5077497;28;20232;-82
2022/04/03 11:45:59;;;;;;;1.73;1.07;;;6.80;96.20;;;;;;5095872;28;20230;-82
2022/04/03 11:48:29;;;;;;;2.27;0.97;;;7.30;96.30;;;;;;5088949;28;20832;-82
2022/04/03 11:51:16;;;;;;;2.33;1.00;;;7.70;95.40;;;;;;5078140;28;20233;-81
2022/04/03 11:53:44;;;;;;;1.63;0.70;;;8.10;95.20;;;;;;5093912;28;20236;-85
2022/04/03 11:56:13;;;;;;;1.93;0.70;;;8.50;94.70;;;;;;5070889;28;20230;-84
2022/04/03 11:58:42;;;;;;;2.03;0.80;;;8.80;94.40;;;;;;5089824;28;20360;-85
2022/04/03 12:01:10;;;;;;;2.10;1.90;;;9.10;94.30;;;;;;5088665;28;20219;-85
2022/04/03 12:03:38;;;;;;;2.17;1.13;;;9.50;93.80;;;;;;5074247;28;20227;-86
2022/04/03 12:06:16;;;;;;;3.50;1.10;;;9.90;93.40;;;;;;5072332;28;20276;-84
2022/04/03 12:08:45;;;;;;;3.10;1.00;;;10.20;92.50;;;;;;5090079;28;20321;-84
2022/04/03 12:11:20;;;;;;;1.70;0.90;;;10.50;92.00;;;;;;5066784;28;20230;-85
2022/04/03 12:13:47;;;;;;;2.83;1.30;;;10.70;91.20;;;;;;5068992;28;20254;-85
2022/04/03 12:16:18;;;;;;;2.23;1.17;;;10.90;90.20;;;;;;5084972;28;20630;-85
2022/04/03 12:18:56;;;;;;;1.87;1.07;;;11.00;86.90;;;;;;5067470;28;20232;-83
2022/04/03 12:21:37;;;;;;;2.23;0.70;;;10.80;84.60;;;;;;5060580;28;20231;-83
2022/04/03 12:24:06;;;;;;;2.57;0.93;;;10.60;84.10;;;;;;5069685;28;20224;-82
2022/04/03 12:26:34;;;;;;;3.13;0.90;;;10.30;83.10;;;;;;5089426;28;20229;-82
2022/04/03 12:29:01;;;;;;;3.03;1.17;;;9.70;82.30;;;;;;5089808;28;20235;-85
2022/04/03 12:31:29;;;;;;;6.63;5.93;;;9.00;82.40;;;;;;5072478;28;20242;-82
2022/04/03 12:34:07;;;;;;;75.13;39.00;;;8.40;83.10;;;;;;5073269;28;20239;-83
2022/04/03 12:36:45;;;;;;;26.90;13.50;;;7.60;85.40;;;;;;5068134;28;20670;-83
2022/04/03 12:39:33;;;;;;;38.60;16.67;;;7.10;86.90;;;;;;5070021;28;20724;-81
2022/04/03 12:42:25;;;;;;;23.30;10.30;;;6.40;88.50;;;;;;5072996;28;20267;-82
2022/04/03 12:44:58;;;;;;;4.97;3.10;;;5.90;90.30;;;;;;5053004;28;20306;-81
2022/04/03 12:47:31;;;;;;;4.57;1.40;;;5.60;90.40;;;;;;5075375;28;20225;-82
2022/04/03 12:50:19;;;;;;;1.70;0.80;;;5.30;90.60;;;;;;5091005;28;20247;-82
2022/04/03 12:52:53;;;;;;;2.83;2.20;;;5.00;91.20;;;;;;5090006;28;20232;-81
2022/04/03 12:55:48;;;;;;;2.20;1.90;;;4.80;91.30;;;;;;5074464;28;20220;-81